createdAt,value
2023-04-12T00:00:25.960Z,23.69
2023-04-12T00:01:25.957Z,23.70
2023-04-12T00:02:26.127Z,23.69
2023-04-12T00:03:26.081Z,23.68
2023-04-12T00:04:26.103Z,23.69
2023-04-12T00:05:26.058Z,23.69
2023-04-12T00:06:25.933Z,23.69
2023-04-12T00:07:25.922Z,23.68
2023-04-12T00:08:25.926Z,23.68
2023-04-12T00:09:25.903Z,23.68
2023-04-12T00:10:25.915Z,23.66
2023-04-12T00:11:25.908Z,23.67
2023-04-12T00:12:25.912Z,23.67
2023-04-12T00:13:25.878Z,23.66
2023-04-12T00:14:25.893Z,23.65
2023-04-12T00:15:25.868Z,23.66
2023-04-12T00:16:26.068Z,23.66
2023-04-12T00:17:25.892Z,23.66
2023-04-12T00:18:26.299Z,23.66
2023-04-12T00:19:25.873Z,23.66
2023-04-12T00:20:25.868Z,23.66
2023-04-12T00:21:25.829Z,23.64
2023-04-12T00:22:25.848Z,23.65
2023-04-12T00:23:25.836Z,23.63
2023-04-12T00:24:25.822Z,23.65
2023-04-12T00:25:25.809Z,23.66
2023-04-12T00:26:25.817Z,23.62
2023-04-12T00:27:25.793Z,23.63
2023-04-12T00:28:25.787Z,23.63
2023-04-12T00:29:25.789Z,23.62
2023-04-12T00:30:25.773Z,23.61
2023-04-12T00:31:25.788Z,23.63
2023-04-12T00:32:25.821Z,23.62
2023-04-12T00:33:25.752Z,23.63
2023-04-12T00:34:25.760Z,23.61
2023-04-12T00:35:25.761Z,23.62
2023-04-12T00:36:25.746Z,23.61
2023-04-12T00:37:25.742Z,23.60
2023-04-12T00:38:25.720Z,23.60
2023-04-12T00:39:25.736Z,23.59
2023-04-12T00:40:25.721Z,23.60
2023-04-12T00:41:25.715Z,23.58
2023-04-12T00:42:25.693Z,23.60
2023-04-12T00:43:25.690Z,23.59
2023-04-12T00:44:25.706Z,23.58
2023-04-12T00:45:25.701Z,23.59
2023-04-12T00:46:25.720Z,23.60
2023-04-12T00:47:25.719Z,23.58
2023-04-12T00:48:25.676Z,23.57
2023-04-12T00:49:25.664Z,23.57
2023-04-12T00:50:25.676Z,23.57
2023-04-12T00:51:25.639Z,23.56
2023-04-12T00:52:25.648Z,23.55
2023-04-12T00:53:25.646Z,23.57
2023-04-12T00:54:25.622Z,23.56
2023-04-12T00:55:25.626Z,23.57
2023-04-12T00:56:25.630Z,23.55
2023-04-12T00:57:25.617Z,23.54
2023-04-12T00:58:25.623Z,23.55
2023-04-12T00:59:25.609Z,23.53
2023-04-12T01:00:25.606Z,23.54
2023-04-12T01:01:25.620Z,23.54
2023-04-12T01:02:25.725Z,23.53
2023-04-12T01:03:25.828Z,23.54
2023-04-12T01:04:25.790Z,23.53
2023-04-12T01:05:25.871Z,23.54
2023-04-12T01:06:25.956Z,23.53
2023-04-12T01:07:26.008Z,23.53
2023-04-12T01:08:26.060Z,23.54
2023-04-12T01:09:26.102Z,23.54
2023-04-12T01:10:26.167Z,23.52
2023-04-12T01:11:26.246Z,23.52
2023-04-12T01:12:26.288Z,23.53
2023-04-12T01:13:26.341Z,23.53
2023-04-12T01:14:26.408Z,23.51
2023-04-12T01:15:26.460Z,23.51
2023-04-12T01:16:26.520Z,23.52
2023-04-12T01:17:26.504Z,23.52
2023-04-12T01:18:26.514Z,23.49
2023-04-12T01:19:26.572Z,23.50
2023-04-12T01:20:26.627Z,23.51
2023-04-12T01:21:26.725Z,23.52
2023-04-12T01:22:26.760Z,23.51
2023-04-12T01:23:26.816Z,23.52
2023-04-12T01:24:26.867Z,23.50
2023-04-12T01:25:26.945Z,23.49
2023-04-12T01:26:27.062Z,23.52
2023-04-12T01:27:27.052Z,23.50
2023-04-12T01:28:27.183Z,23.50
2023-04-12T01:29:27.202Z,23.50
2023-04-12T01:30:27.278Z,23.50
2023-04-12T01:31:27.347Z,23.50
2023-04-12T01:32:27.401Z,23.49
2023-04-12T01:33:27.418Z,23.49
2023-04-12T01:34:27.499Z,23.49
2023-04-12T01:35:27.624Z,23.49
2023-04-12T01:36:27.620Z,23.48
2023-04-12T01:37:27.648Z,23.49
2023-04-12T01:38:27.728Z,23.48
2023-04-12T01:39:27.785Z,23.48
2023-04-12T01:40:27.844Z,23.49
2023-04-12T01:41:27.928Z,23.48
2023-04-12T01:42:27.976Z,23.47
2023-04-12T01:43:28.036Z,23.46
2023-04-12T01:44:28.091Z,23.47
2023-04-12T01:45:28.161Z,23.48
2023-04-12T01:46:28.159Z,23.49
2023-04-12T01:47:28.302Z,23.48
2023-04-12T01:48:28.185Z,23.47
2023-04-12T01:49:28.218Z,23.47
2023-04-12T01:50:28.220Z,23.48
2023-04-12T01:51:28.262Z,23.47
2023-04-12T01:52:28.253Z,23.46
2023-04-12T01:53:28.279Z,23.45
2023-04-12T01:54:28.327Z,23.47
2023-04-12T01:55:28.346Z,23.45
2023-04-12T01:56:28.369Z,23.46
2023-04-12T01:57:28.384Z,23.44
2023-04-12T01:58:28.399Z,23.46
2023-04-12T01:59:28.435Z,23.45
2023-04-12T02:00:28.468Z,23.46
2023-04-12T02:01:28.558Z,23.46
2023-04-12T02:02:28.668Z,23.46
2023-04-12T02:03:28.702Z,23.46
2023-04-12T02:04:28.681Z,23.45
2023-04-12T02:05:28.741Z,23.43
2023-04-12T02:06:28.806Z,23.45
2023-04-12T02:07:28.861Z,23.45
2023-04-12T02:08:28.912Z,23.45
2023-04-12T02:09:28.966Z,23.44
2023-04-12T02:10:29.016Z,23.45
2023-04-12T02:11:29.073Z,23.45
2023-04-12T02:12:29.129Z,23.45
2023-04-12T02:13:29.184Z,23.45
2023-04-12T02:14:29.195Z,23.46
2023-04-12T02:15:29.203Z,23.45
2023-04-12T02:16:29.393Z,23.47
2023-04-12T02:17:29.278Z,23.46
2023-04-12T02:18:29.285Z,23.46
2023-04-12T02:19:29.345Z,23.43
2023-04-12T02:20:29.338Z,23.44
2023-04-12T02:21:29.382Z,23.45
2023-04-12T02:22:29.396Z,23.48
2023-04-12T02:23:29.478Z,23.45
2023-04-12T02:24:29.511Z,23.45
2023-04-12T02:25:29.534Z,23.45
2023-04-12T02:26:29.556Z,23.45
2023-04-12T02:27:29.568Z,23.46
2023-04-12T02:28:29.591Z,23.45
2023-04-12T02:29:29.650Z,23.45
2023-04-12T02:30:29.735Z,23.46
2023-04-12T02:31:29.794Z,23.46
2023-04-12T02:32:29.873Z,23.45
2023-04-12T02:33:29.823Z,23.45
2023-04-12T02:34:29.848Z,23.46
2023-04-12T02:35:29.916Z,23.46
2023-04-12T02:36:29.894Z,23.46
2023-04-12T02:37:29.929Z,23.44
2023-04-12T02:38:29.951Z,23.46
2023-04-12T02:39:30.003Z,23.47
2023-04-12T02:40:30.035Z,23.46
2023-04-12T02:41:30.083Z,23.46
2023-04-12T02:42:30.085Z,23.47
2023-04-12T02:43:30.132Z,23.48
2023-04-12T02:44:30.151Z,23.45
2023-04-12T02:45:30.202Z,23.48
2023-04-12T02:46:30.234Z,23.48
2023-04-12T02:47:30.268Z,23.47
2023-04-12T02:48:30.251Z,23.47
2023-04-12T02:49:30.287Z,23.47
2023-04-12T02:50:30.323Z,23.46
2023-04-12T02:51:30.354Z,23.46
2023-04-12T02:52:30.395Z,23.47
2023-04-12T02:53:30.431Z,23.48
2023-04-12T02:54:30.478Z,23.48
2023-04-12T02:55:30.500Z,23.49
2023-04-12T02:56:30.517Z,23.47
2023-04-12T02:57:30.519Z,23.48
2023-04-12T02:58:30.547Z,23.51
2023-04-12T02:59:30.567Z,23.51
2023-04-12T03:00:30.605Z,23.49
2023-04-12T03:01:30.682Z,23.49
2023-04-12T03:02:30.732Z,23.49
2023-04-12T03:03:30.837Z,23.48
2023-04-12T03:04:30.859Z,23.50
2023-04-12T03:05:30.708Z,23.51
2023-04-12T03:06:30.746Z,23.49
2023-04-12T03:07:30.753Z,23.50
2023-04-12T03:08:30.787Z,23.51
2023-04-12T03:09:30.813Z,23.51
2023-04-12T03:10:30.833Z,23.51
2023-04-12T03:11:30.864Z,23.50
2023-04-12T03:12:30.902Z,23.51
2023-04-12T03:13:30.954Z,23.48
2023-04-12T03:14:30.984Z,23.52
2023-04-12T03:15:31.025Z,23.52
2023-04-12T03:16:31.034Z,23.50
2023-04-12T03:17:31.065Z,23.50
2023-04-12T03:18:31.037Z,23.53
2023-04-12T03:19:31.038Z,23.51
2023-04-12T03:20:31.065Z,23.52
2023-04-12T03:21:31.115Z,23.51
2023-04-12T03:22:31.127Z,23.52
2023-04-12T03:23:31.180Z,23.52
2023-04-12T03:24:31.187Z,23.53
2023-04-12T03:25:31.206Z,23.54
2023-04-12T03:26:31.258Z,23.54
2023-04-12T03:27:31.253Z,23.53
2023-04-12T03:28:31.302Z,23.54
2023-04-12T03:29:31.364Z,23.53
2023-04-12T03:30:31.417Z,23.54
2023-04-12T03:31:31.633Z,23.53
2023-04-12T03:32:31.578Z,23.54
2023-04-12T03:33:31.563Z,23.54
2023-04-12T03:34:31.608Z,23.56
2023-04-12T03:35:31.723Z,23.55
2023-04-12T03:36:31.711Z,23.54
2023-04-12T03:37:31.880Z,23.54
2023-04-12T03:38:31.810Z,23.54
2023-04-12T03:39:31.863Z,23.55
2023-04-12T03:40:31.912Z,23.55
2023-04-12T03:41:31.960Z,23.56
2023-04-12T03:42:33.868Z,23.56
2023-04-12T03:43:32.076Z,23.57
2023-04-12T03:44:32.129Z,23.56
2023-04-12T03:45:32.171Z,23.57
2023-04-12T03:46:32.273Z,23.56
2023-04-12T03:47:32.256Z,23.58
2023-04-12T03:48:32.260Z,23.57
2023-04-12T03:49:32.280Z,23.57
2023-04-12T03:50:32.341Z,23.58
2023-04-12T03:51:32.391Z,23.58
2023-04-12T03:52:32.434Z,23.58
2023-04-12T03:53:32.451Z,23.60
2023-04-12T03:54:32.477Z,23.61
2023-04-12T03:55:32.532Z,23.59
2023-04-12T03:56:32.587Z,23.60
2023-04-12T03:57:32.611Z,23.61
2023-04-12T03:58:32.636Z,23.61
2023-04-12T03:59:32.658Z,23.61
2023-04-12T04:00:32.701Z,23.62
2023-04-12T04:01:32.769Z,23.62
2023-04-12T04:02:32.831Z,23.63
2023-04-12T04:03:32.899Z,23.62
2023-04-12T04:04:32.869Z,23.64
2023-04-12T04:05:32.839Z,23.62
2023-04-12T04:06:32.865Z,23.63
2023-04-12T04:07:32.904Z,23.63
2023-04-12T04:08:32.956Z,23.64
2023-04-12T04:09:33.031Z,23.64
2023-04-12T04:10:33.092Z,23.65
2023-04-12T04:11:33.112Z,23.63
2023-04-12T04:12:33.147Z,23.65
2023-04-12T04:13:33.160Z,23.65
2023-04-12T04:14:33.172Z,23.65
2023-04-12T04:15:33.209Z,23.66
2023-04-12T04:16:33.246Z,23.66
2023-04-12T04:17:33.320Z,23.67
2023-04-12T04:18:33.330Z,23.67
2023-04-12T04:19:33.372Z,23.68
2023-04-12T04:20:33.439Z,23.67
2023-04-12T04:21:33.414Z,23.67
2023-04-12T04:22:33.442Z,23.68
2023-04-12T04:23:33.473Z,23.69
2023-04-12T04:24:33.498Z,23.69
2023-04-12T04:25:33.547Z,23.70
2023-04-12T04:26:33.661Z,23.69
2023-04-12T04:27:33.615Z,23.70
2023-04-12T04:28:35.166Z,23.70
2023-04-12T04:29:33.766Z,23.70
2023-04-12T04:30:33.764Z,23.71
2023-04-12T04:31:33.862Z,23.73
2023-04-12T04:32:33.850Z,23.71
2023-04-12T04:33:33.843Z,23.73
2023-04-12T04:34:33.875Z,23.73
2023-04-12T04:35:33.951Z,23.73
2023-04-12T04:36:33.959Z,23.74
2023-04-12T04:37:33.968Z,23.74
2023-04-12T04:38:34.040Z,23.74
2023-04-12T04:39:34.048Z,23.75
2023-04-12T04:40:34.101Z,23.76
2023-04-12T04:41:34.115Z,23.75
2023-04-12T04:42:34.142Z,23.75
2023-04-12T04:43:34.235Z,23.76
2023-04-12T04:44:34.201Z,23.77
2023-04-12T04:45:34.229Z,23.77
2023-04-12T04:46:34.282Z,23.77
2023-04-12T04:47:34.304Z,23.76
2023-04-12T04:48:34.306Z,23.78
2023-04-12T04:49:34.343Z,23.80
2023-04-12T04:50:34.386Z,23.79
2023-04-12T04:51:34.390Z,23.79
2023-04-12T04:52:34.456Z,23.80
2023-04-12T04:53:34.442Z,23.81
2023-04-12T04:54:34.487Z,23.82
2023-04-12T04:55:34.504Z,23.80
2023-04-12T04:56:34.535Z,23.81
2023-04-12T04:57:34.599Z,23.82
2023-04-12T04:58:34.625Z,23.82
2023-04-12T04:59:34.676Z,23.83
2023-04-12T05:00:34.708Z,23.84
2023-04-12T05:01:34.798Z,23.83
2023-04-12T05:02:34.904Z,23.83
2023-04-12T05:03:34.883Z,23.82
2023-04-12T05:04:34.837Z,23.83
2023-04-12T05:05:34.876Z,23.84
2023-04-12T05:06:34.911Z,23.81
2023-04-12T05:07:34.926Z,23.83
2023-04-12T05:08:34.959Z,23.83
2023-04-12T05:09:34.972Z,23.83
2023-04-12T05:10:35.007Z,23.83
2023-04-12T05:11:35.032Z,23.84
2023-04-12T05:12:35.053Z,23.84
2023-04-12T05:13:35.064Z,23.82
2023-04-12T05:14:45.872Z,23.82
2023-04-12T05:15:36.097Z,23.86
2023-04-12T05:16:35.110Z,23.85
2023-04-12T05:17:35.142Z,23.84
2023-04-12T05:18:35.075Z,23.84
2023-04-12T05:19:35.073Z,23.86
2023-04-12T05:20:35.058Z,23.85
2023-04-12T05:21:35.061Z,23.84
2023-04-12T05:22:35.100Z,23.85
2023-04-12T05:23:35.032Z,23.85
2023-04-12T05:24:35.041Z,23.86
2023-04-12T05:25:35.069Z,23.86
2023-04-12T05:26:35.092Z,24.15
2023-04-12T05:27:35.163Z,24.26
2023-04-12T05:28:35.196Z,24.90
2023-04-12T05:29:35.210Z,25.06
2023-04-12T05:30:35.316Z,25.65
2023-04-12T05:31:35.287Z,25.71
2023-04-12T05:32:35.408Z,26.70
2023-04-12T05:33:35.611Z,26.17
2023-04-12T05:34:35.432Z,26.15
2023-04-12T05:35:35.489Z,26.23
2023-04-12T05:36:35.504Z,26.81
2023-04-12T05:37:35.494Z,27.28
2023-04-12T05:38:35.630Z,27.29
2023-04-12T05:39:35.612Z,27.27
2023-04-12T05:40:35.662Z,27.27
2023-04-12T05:41:35.712Z,27.64
2023-04-12T05:42:35.704Z,27.65
2023-04-12T05:43:35.716Z,27.81
2023-04-12T05:44:35.693Z,28.12
2023-04-12T05:45:35.708Z,28.34
2023-04-12T05:46:35.771Z,28.49
2023-04-12T05:47:35.758Z,28.67
2023-04-12T05:48:35.700Z,28.70
2023-04-12T05:49:35.692Z,28.79
2023-04-12T05:50:35.769Z,28.89
2023-04-12T05:51:40.846Z,29.35
2023-04-12T05:52:36.724Z,29.27
2023-04-12T05:53:35.712Z,29.08
2023-04-12T05:54:35.693Z,29.15
2023-04-12T05:55:37.769Z,29.07
2023-04-12T05:56:35.723Z,28.94
2023-04-12T05:57:35.755Z,28.93
2023-04-12T05:58:35.790Z,28.99
2023-04-12T05:59:35.833Z,28.93
2023-04-12T06:00:35.866Z,28.80
2023-04-12T06:01:35.890Z,28.71
2023-04-12T06:02:36.052Z,28.70
2023-04-12T06:03:36.168Z,28.68
2023-04-12T06:05:37.173Z,28.57
2023-04-12T06:06:36.068Z,28.56
2023-04-12T06:07:36.074Z,28.52
2023-04-12T06:08:36.644Z,28.47
2023-04-12T06:09:36.025Z,28.48
2023-04-12T06:10:36.033Z,28.47
2023-04-12T06:11:36.040Z,28.43
2023-04-12T06:12:36.006Z,28.44
2023-04-12T06:13:36.110Z,28.39
2023-04-12T06:14:36.115Z,28.36
2023-04-12T06:15:36.114Z,28.35
2023-04-12T06:16:36.251Z,28.33
2023-04-12T06:17:36.240Z,28.39
2023-04-12T06:18:36.312Z,28.32
2023-04-12T06:19:36.349Z,28.24
2023-04-12T06:20:36.400Z,28.21
2023-04-12T06:21:36.464Z,28.12
2023-04-12T06:22:36.486Z,28.13
2023-04-12T06:23:36.533Z,28.14
2023-04-12T06:24:36.556Z,28.18
2023-04-12T06:25:36.608Z,28.17
2023-04-12T06:26:39.776Z,28.15
2023-04-12T06:27:36.660Z,28.24
2023-04-12T06:28:36.654Z,28.25
2023-04-12T06:29:36.631Z,28.31
2023-04-12T06:30:36.627Z,28.33
2023-04-12T06:31:37.200Z,28.37
2023-04-12T06:32:36.638Z,28.49
2023-04-12T06:33:36.611Z,28.56
2023-04-12T06:34:36.618Z,29.20
2023-04-12T06:35:36.663Z,28.79
2023-04-12T06:36:36.636Z,28.90
2023-04-12T06:37:36.621Z,29.17
2023-04-12T06:38:37.192Z,29.28
2023-04-12T06:39:36.575Z,29.38
2023-04-12T06:40:36.569Z,29.42
2023-04-12T06:41:36.579Z,29.51
2023-04-12T06:42:36.659Z,29.62
2023-04-12T06:43:36.546Z,29.70
2023-04-12T06:44:36.521Z,29.79
2023-04-12T06:45:36.525Z,29.81
2023-04-12T06:46:36.598Z,29.89
2023-04-12T06:47:36.664Z,29.95
2023-04-12T06:48:36.541Z,30.05
2023-04-12T06:49:36.528Z,30.09
2023-04-12T06:50:36.504Z,30.14
2023-04-12T06:51:36.494Z,30.18
2023-04-12T06:52:36.490Z,30.28
2023-04-12T06:53:36.482Z,30.24
2023-04-12T06:54:36.464Z,30.25
2023-04-12T06:55:36.460Z,30.32
2023-04-12T06:56:36.482Z,30.30
2023-04-12T06:57:36.483Z,30.34
2023-04-12T06:58:36.460Z,30.37
2023-04-12T06:59:36.432Z,30.41
2023-04-12T07:00:36.450Z,30.25
2023-04-12T07:01:36.434Z,30.34
2023-04-12T07:02:36.503Z,30.33
2023-04-12T07:03:36.495Z,30.27
2023-04-12T07:04:36.390Z,30.35
2023-04-12T07:05:36.402Z,30.24
2023-04-12T07:06:36.389Z,30.28
2023-04-12T07:07:36.638Z,30.35
2023-04-12T07:08:36.420Z,30.31
2023-04-12T07:09:36.386Z,30.35
2023-04-12T07:10:36.371Z,30.38
2023-04-12T07:11:36.386Z,30.35
2023-04-12T07:12:36.356Z,30.37
2023-04-12T07:13:36.493Z,30.36
2023-04-12T07:14:36.342Z,30.37
2023-04-12T07:15:36.331Z,30.35
2023-04-12T07:16:36.350Z,30.38
2023-04-12T07:17:36.754Z,30.22
2023-04-12T07:18:36.679Z,30.32
2023-04-12T07:19:36.367Z,30.29
2023-04-12T07:20:36.410Z,30.30
2023-04-12T07:21:36.430Z,30.25
2023-04-12T07:22:36.491Z,30.12
2023-04-12T07:23:36.574Z,30.27
2023-04-12T07:24:36.641Z,30.28
2023-04-12T07:25:36.691Z,30.42
2023-04-12T07:26:36.764Z,29.66
2023-04-12T07:27:36.804Z,29.02
2023-04-12T07:28:36.817Z,28.30
2023-04-12T07:29:36.931Z,28.49
2023-04-12T07:30:36.914Z,28.42
2023-04-12T07:31:37.005Z,28.86
2023-04-12T07:32:37.067Z,28.63
2023-04-12T07:33:38.139Z,29.30
2023-04-12T07:34:37.202Z,29.45
2023-04-12T07:35:37.165Z,29.56
2023-04-12T07:36:37.136Z,29.38
2023-04-12T07:37:37.174Z,29.33
2023-04-12T07:38:37.177Z,29.24
2023-04-12T07:39:37.306Z,29.17
2023-04-12T07:40:37.249Z,29.04
2023-04-12T07:41:37.287Z,28.97
2023-04-12T07:42:37.319Z,28.83
2023-04-12T07:43:37.395Z,28.81
2023-04-12T07:44:38.796Z,28.81
2023-04-12T07:45:37.519Z,28.79
2023-04-12T07:46:37.507Z,28.76
2023-04-12T07:47:37.565Z,28.76
2023-04-12T07:48:37.535Z,28.69
2023-04-12T07:49:37.578Z,28.61
2023-04-12T07:50:37.589Z,28.66
2023-04-12T07:51:37.662Z,28.63
2023-04-12T07:52:37.634Z,28.60
2023-04-12T07:53:37.669Z,28.60
2023-04-12T07:54:37.730Z,28.57
2023-04-12T07:55:37.740Z,28.54
2023-04-12T07:56:37.822Z,28.53
2023-04-12T07:57:37.777Z,28.53
2023-04-12T07:58:37.840Z,28.47
2023-04-12T07:59:37.875Z,28.46
2023-04-12T08:00:37.862Z,28.44
2023-04-12T08:01:37.890Z,28.41
2023-04-12T08:02:38.034Z,28.41
2023-04-12T08:03:38.022Z,28.41
2023-04-12T08:04:37.952Z,28.43
2023-04-12T08:05:38.049Z,28.46
2023-04-12T08:06:37.988Z,28.59
2023-04-12T08:07:38.162Z,28.65
2023-04-12T08:08:38.061Z,28.55
2023-04-12T08:09:38.002Z,28.58
2023-04-12T08:10:37.994Z,28.58
2023-04-12T08:11:38.113Z,28.63
2023-04-12T08:12:38.117Z,28.63
2023-04-12T08:13:38.163Z,28.65
2023-04-12T08:14:39.727Z,28.63
2023-04-12T08:15:38.416Z,28.69
2023-04-12T08:16:38.447Z,28.79
2023-04-12T08:17:38.515Z,28.86
2023-04-12T08:18:38.546Z,28.81
2023-04-12T08:19:38.665Z,28.90
2023-04-12T08:20:38.651Z,28.92
2023-04-12T08:21:38.747Z,28.84
2023-04-12T08:22:39.212Z,28.91
2023-04-12T08:23:38.815Z,29.00
2023-04-12T08:24:41.672Z,29.15
2023-04-12T08:25:38.854Z,29.22
2023-04-12T08:26:38.825Z,29.22
2023-04-12T08:27:38.842Z,29.18
2023-04-12T08:28:39.662Z,29.24
2023-04-12T08:29:38.802Z,29.26
2023-04-12T08:30:38.796Z,29.52
2023-04-12T08:31:38.818Z,29.44
2023-04-12T08:32:38.914Z,29.36
2023-04-12T08:33:38.802Z,29.42
2023-04-12T08:34:38.774Z,29.43
2023-04-12T08:35:38.782Z,29.44
2023-04-12T08:36:38.766Z,29.78
2023-04-12T08:37:38.813Z,29.68
2023-04-12T08:38:45.436Z,29.28
2023-04-12T08:39:39.773Z,29.48
2023-04-12T08:40:38.739Z,29.44
2023-04-12T08:41:39.235Z,29.41
2023-04-12T08:42:38.736Z,29.39
2023-04-12T08:43:38.714Z,29.37
2023-04-12T08:44:38.727Z,29.40
2023-04-12T08:45:38.717Z,29.37
2023-04-12T08:46:38.756Z,29.27
2023-04-12T08:47:38.750Z,29.25
2023-04-12T08:48:38.693Z,29.16
2023-04-12T08:49:38.709Z,29.12
2023-04-12T08:50:38.678Z,29.10
2023-04-12T08:51:38.659Z,29.07
2023-04-12T08:52:38.672Z,28.95
2023-04-12T08:53:38.684Z,28.97
2023-04-12T08:54:38.663Z,28.96
2023-04-12T08:55:38.673Z,28.92
2023-04-12T08:56:38.658Z,28.85
2023-04-12T08:57:38.642Z,28.78
2023-04-12T08:58:38.624Z,28.78
2023-04-12T08:59:38.641Z,28.76
2023-04-12T09:00:38.626Z,28.78
2023-04-12T09:01:38.671Z,28.64
2023-04-12T09:02:38.846Z,28.67
2023-04-12T09:03:38.992Z,28.67
2023-04-12T09:04:38.739Z,28.70
2023-04-12T09:05:38.582Z,28.64
2023-04-12T09:06:38.620Z,28.61
2023-04-12T09:07:38.694Z,28.55
2023-04-12T09:08:38.699Z,28.29
2023-04-12T09:09:38.738Z,28.51
2023-04-12T09:10:39.222Z,28.45
2023-04-12T09:11:38.760Z,28.50
2023-04-12T09:12:38.822Z,28.49
2023-04-12T09:13:38.877Z,28.39
2023-04-12T09:14:38.836Z,28.24
2023-04-12T09:15:38.938Z,28.29
2023-04-12T09:16:39.011Z,28.28
2023-04-12T09:17:39.073Z,28.23
2023-04-12T09:18:38.963Z,28.18
2023-04-12T09:19:39.035Z,28.16
2023-04-12T09:20:39.052Z,28.11
2023-04-12T09:21:39.080Z,28.06
2023-04-12T09:22:39.205Z,28.04
2023-04-12T09:23:39.175Z,28.04
2023-04-12T09:24:39.244Z,28.09
2023-04-12T09:25:39.693Z,27.60
2023-04-12T09:26:39.308Z,28.09
2023-04-12T09:27:39.321Z,28.37
2023-04-12T09:28:39.349Z,28.37
2023-04-12T09:29:39.414Z,29.39
2023-04-12T09:30:39.462Z,30.28
2023-04-12T09:31:39.576Z,30.04
2023-04-12T09:32:39.620Z,30.10
2023-04-12T09:33:39.698Z,30.49
2023-04-12T09:34:39.646Z,30.72
2023-04-12T09:35:39.788Z,30.91
2023-04-12T09:36:39.714Z,31.23
2023-04-12T09:37:39.751Z,31.32
2023-04-12T09:38:39.785Z,31.27
2023-04-12T09:39:40.740Z,30.33
2023-04-12T09:40:39.912Z,30.85
2023-04-12T09:41:39.969Z,30.60
2023-04-12T09:42:40.001Z,30.48
2023-04-12T09:43:40.036Z,30.54
2023-04-12T09:44:40.058Z,30.16
2023-04-12T09:45:40.219Z,30.38
2023-04-12T09:46:40.153Z,30.33
2023-04-12T09:47:40.305Z,30.42
2023-04-12T09:48:40.116Z,30.44
2023-04-12T09:49:40.126Z,30.25
2023-04-12T09:50:40.230Z,29.87
2023-04-12T09:51:40.149Z,29.71
2023-04-12T09:52:40.249Z,29.91
2023-04-12T09:53:40.199Z,29.93
2023-04-12T09:54:40.223Z,29.70
2023-04-12T09:55:40.229Z,29.57
2023-04-12T09:56:40.225Z,29.67
2023-04-12T09:57:40.250Z,29.77
2023-04-12T09:58:40.250Z,29.86
2023-04-12T09:59:40.352Z,29.88
2023-04-12T10:00:40.361Z,29.85
2023-04-12T10:01:40.546Z,29.73
2023-04-12T10:02:40.684Z,29.86
2023-04-12T10:03:40.510Z,29.97
2023-04-12T10:04:40.573Z,30.14
2023-04-12T10:05:40.597Z,30.58
2023-04-12T10:06:40.472Z,31.07
2023-04-12T10:07:40.918Z,31.48
2023-04-12T10:08:40.568Z,31.86
2023-04-12T10:09:40.597Z,32.15
2023-04-12T10:10:40.726Z,31.99
2023-04-12T10:11:40.625Z,32.15
2023-04-12T10:12:40.595Z,32.35
2023-04-12T10:13:40.734Z,32.34
2023-04-12T10:14:40.671Z,32.48
2023-04-12T10:15:40.693Z,32.39
2023-04-12T10:16:40.757Z,32.38
2023-04-12T10:17:40.717Z,32.26
2023-04-12T10:18:40.697Z,32.33
2023-04-12T10:19:40.764Z,32.31
2023-04-12T10:20:41.242Z,32.05
2023-04-12T10:21:40.778Z,32.10
2023-04-12T10:22:40.779Z,31.12
2023-04-12T10:23:41.263Z,31.18
2023-04-12T10:24:40.818Z,31.09
2023-04-12T10:25:40.862Z,30.69
2023-04-12T10:26:40.843Z,30.90
2023-04-12T10:27:40.859Z,30.98
2023-04-12T10:28:40.918Z,31.12
2023-04-12T10:29:40.969Z,31.93
2023-04-12T10:30:41.026Z,31.82
2023-04-12T10:31:41.091Z,31.32
2023-04-12T10:32:41.170Z,30.90
2023-04-12T10:33:41.179Z,31.07
2023-04-12T10:34:41.211Z,30.65
2023-04-12T10:35:41.789Z,30.47
2023-04-12T10:36:41.348Z,30.59
2023-04-12T10:37:41.309Z,30.19
2023-04-12T10:38:41.381Z,30.41
2023-04-12T10:39:41.381Z,30.76
2023-04-12T10:40:41.416Z,31.46
2023-04-12T10:41:41.753Z,31.05
2023-04-12T10:42:41.420Z,30.98
2023-04-12T10:43:41.758Z,31.00
2023-04-12T10:44:41.447Z,31.00
2023-04-12T10:45:41.443Z,31.01
2023-04-12T10:46:41.489Z,31.08
2023-04-12T10:47:41.469Z,31.12
2023-04-12T10:48:41.439Z,31.20
2023-04-12T10:49:41.433Z,31.18
2023-04-12T10:50:41.486Z,31.22
2023-04-12T10:51:41.574Z,31.25
2023-04-12T10:52:41.598Z,31.30
2023-04-12T10:53:41.631Z,31.31
2023-04-12T10:54:41.639Z,31.30
2023-04-12T10:55:41.708Z,31.33
2023-04-12T10:56:41.660Z,31.41
2023-04-12T10:57:41.683Z,31.41
2023-04-12T10:58:41.665Z,31.42
2023-04-12T10:59:47.584Z,31.38
2023-04-12T11:00:42.704Z,31.40
2023-04-12T11:01:41.938Z,31.38
2023-04-12T11:02:41.685Z,31.36
2023-04-12T11:03:41.783Z,31.38
2023-04-12T11:04:41.779Z,31.35
2023-04-12T11:05:41.697Z,31.32
2023-04-12T11:06:41.638Z,31.26
2023-04-12T11:07:41.613Z,31.25
2023-04-12T11:08:41.690Z,31.21
2023-04-12T11:09:41.579Z,31.17
2023-04-12T11:10:41.675Z,31.12
2023-04-12T11:11:41.571Z,31.06
2023-04-12T11:12:41.605Z,30.99
2023-04-12T11:13:41.605Z,30.93
2023-04-12T11:14:41.597Z,30.91
2023-04-12T11:15:41.557Z,30.87
2023-04-12T11:16:42.018Z,30.88
2023-04-12T11:17:41.567Z,30.80
2023-04-12T11:18:41.834Z,30.76
2023-04-12T11:19:41.538Z,30.75
2023-04-12T11:20:41.511Z,30.69
2023-04-12T11:21:41.739Z,30.69
2023-04-12T11:22:41.536Z,30.64
2023-04-12T11:23:41.532Z,30.60
2023-04-12T11:24:41.585Z,30.56
2023-04-12T11:25:41.546Z,30.55
2023-04-12T11:26:41.567Z,30.48
2023-04-12T11:27:41.630Z,30.44
2023-04-12T11:28:41.660Z,30.43
2023-04-12T11:29:41.671Z,30.41
2023-04-12T11:30:41.690Z,30.37
2023-04-12T11:31:41.747Z,30.31
2023-04-12T11:32:41.746Z,30.29
2023-04-12T11:33:41.685Z,30.22
2023-04-12T11:34:41.716Z,30.18
2023-04-12T11:35:41.730Z,30.13
2023-04-12T11:36:41.774Z,30.08
2023-04-12T11:37:41.773Z,30.05
2023-04-12T11:38:41.994Z,30.01
2023-04-12T11:39:41.846Z,29.97
2023-04-12T11:40:41.855Z,29.93
2023-04-12T11:42:54.558Z,29.85
2023-04-12T11:43:54.549Z,29.82
2023-04-12T11:44:57.254Z,29.77
2023-04-12T11:45:55.633Z,29.77
2023-04-12T11:46:54.533Z,29.69
2023-04-12T11:47:54.589Z,29.66
2023-04-12T11:48:54.673Z,29.63
2023-04-12T11:49:54.510Z,29.59
2023-04-12T11:51:07.841Z,29.59
2023-04-12T11:51:55.483Z,29.56
2023-04-12T11:52:54.485Z,29.53
2023-04-12T11:53:54.769Z,29.50
2023-04-12T11:54:54.475Z,29.50
2023-04-12T11:55:54.459Z,29.47
2023-04-12T11:56:54.461Z,29.45
2023-04-12T11:57:54.480Z,29.43
2023-04-12T11:58:54.480Z,29.40
2023-04-12T11:59:54.441Z,29.33
2023-04-12T12:00:54.438Z,29.32
2023-04-12T12:01:54.467Z,29.32
2023-04-12T12:03:06.775Z,29.28
2023-04-12T12:03:55.836Z,29.27
2023-04-12T12:04:54.506Z,29.25
2023-04-12T12:05:54.632Z,29.23
2023-04-12T12:06:54.831Z,29.22
2023-04-12T12:07:54.380Z,29.20
2023-04-12T12:08:54.398Z,29.15
2023-04-12T12:09:54.366Z,29.15
2023-04-12T12:11:06.423Z,29.09
2023-04-12T12:11:55.360Z,29.10
2023-04-12T12:12:54.353Z,29.07
2023-04-12T12:13:54.775Z,29.05
2023-04-12T12:14:54.322Z,29.03
2023-04-12T12:15:54.344Z,29.01
2023-04-12T12:16:54.344Z,28.98
2023-04-12T12:17:54.404Z,28.96
2023-04-12T12:18:54.348Z,28.98
2023-04-12T12:19:54.283Z,28.99
2023-04-12T12:20:54.509Z,28.95
2023-04-12T12:21:54.288Z,28.92
2023-04-12T12:22:54.380Z,28.92
2023-04-12T12:23:54.308Z,28.93
2023-04-12T12:24:54.305Z,28.90
2023-04-12T12:26:02.945Z,28.91
2023-04-12T12:26:55.256Z,28.89
2023-04-12T12:27:54.336Z,28.91
2023-04-12T12:28:54.331Z,28.91
2023-04-12T12:29:54.251Z,28.91
2023-04-12T12:30:54.325Z,28.90
2023-04-12T12:31:54.334Z,28.93
2023-04-12T12:32:54.322Z,28.91
2023-04-12T12:33:54.256Z,28.91
2023-04-12T12:34:54.807Z,28.91
2023-04-12T12:35:54.256Z,28.92
2023-04-12T12:36:54.234Z,28.92
2023-04-12T12:37:54.205Z,28.89
2023-04-12T12:38:54.210Z,28.85
2023-04-12T12:39:54.201Z,28.86
2023-04-12T12:40:54.204Z,28.84
2023-04-12T12:41:54.178Z,28.84
2023-04-12T12:42:54.165Z,28.81
2023-04-12T12:43:54.190Z,28.81
2023-04-12T12:44:54.215Z,28.78
2023-04-12T12:45:54.153Z,28.75
2023-04-12T12:46:58.768Z,28.74
2023-04-12T12:47:55.256Z,28.76
2023-04-12T12:48:54.126Z,28.77
2023-04-12T12:49:54.270Z,28.73
2023-04-12T12:50:54.106Z,28.75
2023-04-12T12:51:54.084Z,28.74
2023-04-12T12:52:54.111Z,28.72
2023-04-12T12:53:54.081Z,28.70
2023-04-12T12:54:54.068Z,28.68